Clear Sky Current Weather (METAR) For London Heathrow Airport

All times on the weather descriptions are local

Observed at 00:20 - (21 mins ago)

Clear Sky

21°C

Clear Sky
Clouds:
Wind: 050° at 06 knots
Visibility: Greater than 10km
QNH: 1018
Dew Point: 14°C
Runway in Use: Likely Runways 09L/R

Sunrise Today: 05:11
Sunset Today: 21:05

Forecast Weather (TAF) For London Heathrow Airport

Issued at 01:00 - (7 days 0 hrs ago)


Runway in Use: Likely Runways 27L/R

Forecast valid until 01:00 on Thursday

METAR/TAF RAW METAR / TAF

EGLL 232320Z 05006KT CAVOK 21/14 Q1018 NOSIG

Weather Widget

Put weather from any of our airports on your website with our weather widget.

Find Another Search

Airport Search


Please Wait Please Wait - Loading
Close
Close

Login

Username:

Password:

Remember Me:

Remember me on this computer

Forgotten your password? Get a reset password sent to your registered e-mail address

Close

User Private Message

Subject:

Message: